首页
METAR-TAF:

METAR-TAF

机场 :

Fort Good Hope, 西北特區, 加拿大

纬度: 66-16N, 经度: 128-37W, 海拔: 60米

当前天气观测

该预报发布于15小时和5分钟前的21:25 UTC
风速7节,风向西,在西转西南西北之间变化
温度 3°C
湿度 93%
气压 1024 hPa
能見度: 6.4公里
阴天层高于800英尺
小雨, 轻雾

METAR: CYGH 182125Z 28007KT 250V310 4SM -RA BR OVC008 03/02 A3024 RMK ST8 LAST STFD OBS/NEXT OBS 191300UTC SLP249

时间: 06:30 (12:30 UTC)


TAF: 丢失

超过4000个机场的气象观测和天气预报(METAR&TAF报告)。

可查询的气象台以黄色和红色小点在地图上表示。

将鼠标移到小点上方,可查看气象台名称。

然后点击查看天气观测和预报。

如需切换地图:点击带黑十字的绿色按钮放大地图;点击带横线的绿色按钮缩小地图;或者点击绿色箭头查看邻近地区的地图。


METAR-TAF: